Алматы

Карта отелей и гостиниц, располагающихся рядом с аэропортом Алматы :

Алматы Алматинская область 43° 21' 31.32" N, 77° 2' 53.0412" E
Алматы Алматинская область 43° 21' 31.32" N, 77° 2' 53.0412" E
Код аэродрома ИКАО
UAAA
Код аэродрома RU
УААА
Координаты
N43.35870° E077.04807°
Превышение над уровнем моря
681
Основная полоса
05L/23R
Курс магнитный
050,9/230,9
Длина основной ВПП
4510
Ширина основной ВПП
60
Покрытие основной ВПП
Твёрдое (железобетон)
Освещение ВПП
Постоянное
Тип: 
Аэродром
Класс аэродрома: 
Международный
Принадлежность: 
ГА
Статус: 
Действующий
Сайт: 
alaport.com
E-mail аэродрома: 
Страна: 
Казахстан
Регион: 
Алматинская область
Город: 
Дополнительная информация: 
Существует с 1935 г. Горный. Оператор: АО «Международный Аэропорт Алматы». Совместного базирования.

Найти трансфер

С помощью этой формы Вы можете найти трансфер из аэропорта Алматы в город, аэропорт или вокзал:

Погода в аэропортах:

Авиационная погода в Куопио

Регион: 
Погода METAR: 
EFKU 221750Z AUTO VRB01KT 1100 R33/1400D BCFG VV003 M11/M12 Q1019
Время наблюдения
2022-01-22T17:50:00Z
Температура C
-11.0
Точка росы
-12.0
Направление ветра
0
Скорость ветра (узлы)
1
Метео видимость
0.68
Облачность
OVX
Нижняя граница облачности (футы)
0
Явления погоды
BCFG
Условия полета
LIFR
FG – туман (небо не видно, температура воздуха выше нуля или ноль);

Авиационная погода в аэропорту Бесовец

Регион: 
Погода METAR: 
ULPB 221800Z AUTO 10002MPS 8000 -SN M07/M09 Q1020 RMK QFE761/1015
Время наблюдения
2022-01-22T18:00:00Z
Температура C
-7.0
Точка росы
-9.0
Направление ветра
100
Скорость ветра (узлы)
4
Метео видимость
4.97
Облачность
Нижняя граница облачности (футы)
Явления погоды
-SN
Условия полета
Аэропорт подробнее: 
-SN – слабый снег;

Авиационная погода в Челябинске

Регион: 
Погода METAR: 
USCC 221800Z 11001MPS 2800 BR FU NSC M21/M24 Q1030 R27/420350 NOSIG RMK QFE752
Время наблюдения
2022-01-22T18:00:00Z
Температура C
-21.0
Точка росы
-24.0
Направление ветра
110
Скорость ветра (узлы)
2
Метео видимость
1.74
Облачность
CLR
Нижняя граница облачности (футы)
Явления погоды
BR FU
Условия полета
IFR
Аэропорт подробнее: 
CLR — нет облаков ниже 3000 м
BR – дымка (видимость от 1 до 9 км); FU – дым (видимость менее 10 км);

Авиационная погода в Храброво

Регион: 
Погода METAR: 
UMKK 221800Z 35006MPS 8000 2300E -SHSN SCT008 BKN016CB 01/M02 Q1023 R24/690195 NOSIG RMK QFE766/1021
Время наблюдения
2022-01-22T18:00:00Z
Температура C
1.0
Точка росы
-2.0
Направление ветра
350
Скорость ветра (узлы)
12
Метео видимость
4.97
Облачность
SCT
BKN
Нижняя граница облачности (футы)
800
1600
Явления погоды
-SHSN
Условия полета
MVFR
Аэропорт подробнее: 
SCT – разбросанная отдельная облачность; BKN – значительная (рассеянная, разорванная) облачность;
-SHSN - слабый ливневой снег;